createdAt,value
2022-11-03T00:01:53.134Z,11.60
2022-11-03T00:04:23.125Z,11.70
2022-11-03T00:06:53.737Z,11.70
2022-11-03T00:09:23.414Z,11.70
2022-11-03T00:11:52.011Z,11.70
2022-11-03T00:14:20.237Z,11.70
2022-11-03T00:16:47.561Z,11.70
2022-11-03T00:19:17.606Z,11.70
2022-11-03T00:21:46.061Z,11.60
2022-11-03T00:24:13.832Z,11.60
2022-11-03T00:26:41.103Z,11.60
2022-11-03T00:29:12.065Z,11.60
2022-11-03T00:31:44.839Z,11.50
2022-11-03T00:34:12.430Z,11.50
2022-11-03T00:36:44.475Z,11.50
2022-11-03T00:39:13.227Z,11.50
2022-11-03T00:41:40.714Z,11.50
2022-11-03T00:44:10.411Z,11.70
2022-11-03T00:46:37.831Z,11.70
2022-11-03T00:49:06.065Z,11.70
2022-11-03T00:51:35.045Z,11.70
2022-11-03T00:54:04.898Z,11.70
2022-11-03T00:56:38.519Z,11.70
2022-11-03T00:59:08.268Z,11.70
2022-11-03T01:01:45.342Z,11.70
2022-11-03T01:04:36.333Z,11.80
2022-11-03T01:07:06.058Z,11.80
2022-11-03T01:09:43.482Z,11.80
2022-11-03T01:12:19.323Z,11.90
2022-11-03T01:14:50.434Z,11.90
2022-11-03T01:17:27.574Z,11.90
2022-11-03T01:19:55.606Z,12.00
2022-11-03T01:22:24.192Z,12.00
2022-11-03T01:24:54.237Z,12.00
2022-11-03T01:27:25.692Z,12.00
2022-11-03T01:29:52.672Z,12.00
2022-11-03T01:32:19.698Z,12.00
2022-11-03T01:34:46.756Z,11.90
2022-11-03T01:37:13.814Z,12.00
2022-11-03T01:39:41.417Z,12.00
2022-11-03T01:42:14.479Z,12.10
2022-11-03T01:44:48.905Z,12.10
2022-11-03T01:47:31.185Z,12.00
2022-11-03T01:50:10.088Z,12.00
2022-11-03T01:52:55.786Z,12.00
2022-11-03T01:55:32.505Z,12.00
2022-11-03T01:58:28.091Z,11.90
2022-11-03T02:01:01.184Z,12.00
2022-11-03T02:03:38.350Z,12.00
2022-11-03T02:06:06.813Z,11.90
2022-11-03T02:08:49.544Z,11.90
2022-11-03T02:11:35.176Z,11.90
2022-11-03T02:14:02.386Z,11.90
2022-11-03T02:16:32.809Z,11.90
2022-11-03T02:19:02.265Z,11.80
2022-11-03T02:22:14.533Z,11.90
2022-11-03T02:25:28.538Z,11.90
2022-11-03T02:27:55.649Z,11.80
2022-11-03T02:30:22.771Z,11.90
2022-11-03T02:33:06.682Z,11.90
2022-11-03T02:35:55.167Z,12.00
2022-11-03T02:38:26.763Z,12.00
2022-11-03T02:40:56.530Z,12.00
2022-11-03T02:43:25.893Z,11.90
2022-11-03T02:45:55.250Z,12.00
2022-11-03T02:48:22.348Z,12.00
2022-11-03T02:50:49.416Z,12.00
2022-11-03T02:53:17.104Z,12.10
2022-11-03T02:56:10.708Z,12.10
2022-11-03T02:58:54.044Z,12.10
2022-11-03T03:01:47.474Z,12.10
2022-11-03T03:04:34.439Z,12.10
2022-11-03T03:07:17.288Z,12.10
2022-11-03T03:09:58.302Z,12.10
2022-11-03T03:12:27.148Z,12.10
2022-11-03T03:14:57.030Z,12.10
2022-11-03T03:17:46.280Z,12.00
2022-11-03T03:20:48.768Z,12.10
2022-11-03T03:23:21.623Z,12.10
2022-11-03T03:26:05.199Z,12.10
2022-11-03T03:28:49.623Z,12.10
2022-11-03T03:31:19.729Z,12.10
2022-11-03T03:33:48.836Z,12.10
2022-11-03T03:36:20.126Z,12.10
2022-11-03T03:38:55.530Z,12.20
2022-11-03T03:41:24.733Z,12.20
2022-11-03T03:43:56.135Z,12.10
2022-11-03T03:46:27.849Z,12.10
2022-11-03T03:48:55.170Z,12.10
2022-11-03T03:51:27.389Z,12.20
2022-11-03T03:53:55.469Z,12.20
2022-11-03T03:57:00.905Z,12.20
2022-11-03T03:59:28.191Z,12.20
2022-11-03T04:01:55.341Z,12.20
2022-11-03T04:04:22.600Z,12.10
2022-11-03T04:06:49.646Z,12.10
2022-11-03T04:09:16.595Z,12.10
2022-11-03T04:12:02.215Z,12.10
2022-11-03T04:14:47.627Z,12.20
2022-11-03T04:17:39.623Z,12.10
2022-11-03T04:20:32.064Z,12.10
2022-11-03T04:22:59.128Z,12.10
2022-11-03T04:25:26.153Z,12.10
2022-11-03T04:27:53.098Z,12.10
2022-11-03T04:30:22.180Z,12.10
2022-11-03T04:32:51.470Z,12.10
2022-11-03T04:35:27.964Z,12.00
2022-11-03T04:38:05.223Z,12.10
2022-11-03T04:40:33.500Z,12.10
2022-11-03T04:43:00.486Z,12.00
2022-11-03T04:45:31.486Z,12.00
2022-11-03T04:48:02.576Z,12.00
2022-11-03T04:50:29.672Z,12.00
2022-11-03T04:52:59.285Z,12.10
2022-11-03T04:55:27.236Z,12.10
2022-11-03T04:58:13.944Z,12.10
2022-11-03T05:00:41.065Z,12.20
2022-11-03T05:03:17.008Z,12.20
2022-11-03T05:05:44.017Z,12.20
2022-11-03T05:08:12.624Z,12.10
2022-11-03T05:10:39.944Z,12.20
2022-11-03T05:13:18.171Z,12.20
2022-11-03T05:15:46.151Z,12.20
2022-11-03T05:18:26.018Z,12.20
2022-11-03T05:21:05.461Z,12.20
2022-11-03T05:24:01.348Z,12.20
2022-11-03T05:26:35.277Z,12.20
2022-11-03T05:29:11.102Z,12.20
2022-11-03T05:31:43.195Z,12.20
2022-11-03T05:34:41.034Z,12.20
2022-11-03T05:37:25.859Z,12.20
2022-11-03T05:40:13.764Z,12.10
2022-11-03T05:42:45.295Z,12.10
2022-11-03T05:45:26.840Z,12.10
2022-11-03T05:47:57.118Z,12.00
2022-11-03T05:50:30.772Z,12.10
2022-11-03T05:53:22.464Z,12.10
2022-11-03T05:55:49.655Z,12.00
2022-11-03T05:58:38.752Z,12.10
2022-11-03T06:01:16.752Z,12.10
2022-11-03T06:03:43.960Z,12.20
2022-11-03T06:06:37.664Z,12.20
2022-11-03T06:09:18.727Z,12.20
2022-11-03T06:11:46.234Z,12.10
2022-11-03T06:14:24.003Z,12.20
2022-11-03T06:17:07.606Z,12.10
2022-11-03T06:19:52.412Z,12.10
2022-11-03T06:22:35.408Z,12.10
2022-11-03T06:25:19.042Z,12.10
2022-11-03T06:27:46.184Z,12.10
2022-11-03T06:30:29.044Z,12.10
2022-11-03T06:33:01.886Z,12.10
2022-11-03T06:35:29.099Z,12.20
2022-11-03T06:38:00.227Z,12.20
2022-11-03T06:40:36.005Z,12.20
2022-11-03T06:43:24.616Z,12.20
2022-11-03T06:46:09.075Z,12.10
2022-11-03T06:48:36.409Z,12.20
2022-11-03T06:51:14.618Z,12.20
2022-11-03T06:53:42.352Z,12.20
2022-11-03T06:56:18.901Z,12.30
2022-11-03T06:58:48.909Z,12.30
2022-11-03T07:01:22.927Z,12.30
2022-11-03T07:03:53.060Z,12.30
2022-11-03T07:06:27.388Z,12.30
2022-11-03T07:08:59.164Z,12.30
2022-11-03T07:11:38.071Z,12.30
2022-11-03T07:14:14.638Z,12.40
2022-11-03T07:16:48.388Z,12.50
2022-11-03T07:19:27.813Z,12.50
2022-11-03T07:22:20.898Z,12.50
2022-11-03T07:24:53.642Z,12.50
2022-11-03T07:27:28.409Z,12.50
2022-11-03T07:30:12.525Z,12.50
2022-11-03T07:32:39.852Z,12.50
2022-11-03T07:35:53.227Z,12.60
2022-11-03T07:38:23.905Z,12.60
2022-11-03T07:40:53.130Z,12.60
2022-11-03T07:43:25.260Z,12.60
2022-11-03T07:45:53.629Z,12.70
2022-11-03T07:48:38.455Z,12.80
2022-11-03T07:51:34.017Z,12.80
2022-11-03T07:54:20.669Z,12.80
2022-11-03T07:56:57.794Z,12.90
2022-11-03T07:59:42.180Z,12.80
2022-11-03T08:02:49.183Z,12.90
2022-11-03T08:05:16.768Z,12.90
2022-11-03T08:07:43.975Z,12.80
2022-11-03T08:10:11.213Z,12.90
2022-11-03T08:12:38.169Z,12.90
2022-11-03T08:15:05.839Z,12.90
2022-11-03T08:17:32.982Z,13.00
2022-11-03T08:20:00.066Z,13.00
2022-11-03T08:22:27.093Z,13.00
2022-11-03T08:24:54.192Z,13.10
2022-11-03T08:27:21.291Z,13.10
2022-11-03T08:29:48.540Z,13.10
2022-11-03T08:32:15.550Z,13.20
2022-11-03T08:34:42.880Z,13.20
2022-11-03T08:37:09.880Z,13.30
2022-11-03T08:39:36.892Z,13.30
2022-11-03T08:42:04.042Z,13.40
2022-11-03T08:44:31.095Z,13.40
2022-11-03T08:46:58.075Z,13.40
2022-11-03T08:49:25.094Z,13.50
2022-11-03T08:51:52.060Z,13.60
2022-11-03T08:54:19.014Z,13.60
2022-11-03T08:56:46.757Z,13.60
2022-11-03T08:59:13.823Z,13.60
2022-11-03T09:01:40.856Z,13.70
2022-11-03T09:04:07.946Z,13.80
2022-11-03T09:06:34.946Z,13.80
2022-11-03T09:11:49.877Z,13.90
2022-11-03T09:14:17.367Z,14.00
2022-11-03T09:16:44.342Z,14.00
2022-11-03T09:19:11.600Z,14.10
2022-11-03T09:21:38.906Z,14.10
2022-11-03T09:24:06.525Z,14.10
2022-11-03T09:26:33.675Z,14.20
2022-11-03T09:29:01.024Z,14.20
2022-11-03T09:31:29.287Z,14.20
2022-11-03T09:33:56.476Z,14.20
2022-11-03T09:36:23.597Z,14.20
2022-11-03T09:38:51.030Z,14.20
2022-11-03T09:41:26.451Z,14.20
2022-11-03T09:43:58.246Z,14.10
2022-11-03T09:46:26.809Z,14.10
2022-11-03T09:48:56.018Z,14.10
2022-11-03T09:51:25.592Z,14.10
2022-11-03T09:53:52.723Z,14.10
2022-11-03T09:56:23.170Z,14.10
2022-11-03T09:58:54.315Z,14.10
2022-11-03T10:01:22.964Z,14.10
2022-11-03T10:03:50.429Z,14.00
2022-11-03T10:06:18.837Z,14.00
2022-11-03T10:08:48.460Z,14.10
2022-11-03T10:11:15.749Z,14.10
2022-11-03T10:13:54.595Z,14.00
2022-11-03T10:16:24.860Z,14.00
2022-11-03T10:18:53.095Z,14.10
2022-11-03T10:21:27.369Z,14.10
2022-11-03T10:23:54.363Z,14.10
2022-11-03T10:26:22.885Z,14.10
2022-11-03T10:29:06.037Z,14.20
2022-11-03T10:31:39.967Z,14.20
2022-11-03T10:34:26.106Z,14.20
2022-11-03T10:37:23.197Z,14.20
2022-11-03T10:39:53.185Z,14.20
2022-11-03T10:42:35.216Z,14.30
2022-11-03T10:45:20.956Z,14.30
2022-11-03T10:48:06.352Z,14.30
2022-11-03T10:50:33.409Z,14.40
2022-11-03T10:53:00.437Z,14.50
2022-11-03T10:55:28.534Z,14.60
2022-11-03T10:57:58.144Z,14.60
2022-11-03T11:00:26.886Z,14.50
2022-11-03T11:03:00.957Z,14.60
2022-11-03T11:05:28.278Z,14.70
2022-11-03T11:07:56.096Z,14.70
2022-11-03T11:10:34.173Z,14.70
2022-11-03T11:13:04.284Z,14.80
2022-11-03T11:15:41.085Z,14.70
2022-11-03T11:18:09.357Z,14.80
2022-11-03T11:20:42.668Z,14.80
2022-11-03T11:23:27.931Z,14.80
2022-11-03T11:26:10.356Z,15.00
2022-11-03T11:28:44.994Z,15.10
2022-11-03T11:31:33.901Z,15.30
2022-11-03T11:34:17.070Z,15.20
2022-11-03T11:36:56.488Z,15.20
2022-11-03T11:39:23.545Z,15.20
2022-11-03T11:42:20.170Z,15.20
2022-11-03T11:45:03.178Z,15.20
2022-11-03T11:47:40.883Z,15.20
2022-11-03T11:50:09.498Z,15.30
2022-11-03T11:53:09.995Z,15.30
2022-11-03T11:55:50.557Z,15.20
2022-11-03T11:58:42.685Z,15.20
2022-11-03T12:01:36.700Z,15.30
2022-11-03T12:04:15.383Z,15.30
2022-11-03T12:09:28.246Z,15.50
2022-11-03T12:12:07.136Z,15.50
2022-11-03T12:14:39.851Z,15.50
2022-11-03T12:17:19.277Z,15.60
2022-11-03T12:19:52.576Z,15.70
2022-11-03T12:22:28.130Z,15.70
2022-11-03T12:25:08.491Z,15.70
2022-11-03T12:27:36.080Z,15.90
2022-11-03T12:30:17.612Z,15.80
2022-11-03T12:32:45.891Z,15.80
2022-11-03T12:35:14.083Z,15.80
2022-11-03T12:37:42.069Z,15.80
2022-11-03T12:40:11.612Z,15.80
2022-11-03T12:42:38.613Z,15.90
2022-11-03T12:45:07.606Z,15.80
2022-11-03T12:47:34.851Z,15.80
2022-11-03T12:50:02.006Z,15.70
2022-11-03T12:52:28.950Z,15.80
2022-11-03T12:54:55.896Z,15.80
2022-11-03T12:57:23.048Z,15.70
2022-11-03T12:59:51.451Z,15.70
2022-11-03T13:02:18.540Z,15.70
2022-11-03T13:04:45.631Z,15.70
2022-11-03T13:07:12.752Z,15.70
2022-11-03T13:09:39.965Z,15.70
2022-11-03T13:12:30.508Z,15.60
2022-11-03T13:14:59.716Z,15.60
2022-11-03T13:17:32.288Z,15.60
2022-11-03T13:22:40.796Z,15.60
2022-11-03T13:25:09.130Z,15.60
2022-11-03T13:27:36.408Z,15.50
2022-11-03T13:30:05.294Z,15.40
2022-11-03T13:32:32.312Z,15.40
2022-11-03T13:34:59.518Z,15.40
2022-11-03T13:37:26.628Z,15.40
2022-11-03T13:39:53.623Z,15.20
2022-11-03T13:42:20.698Z,15.20
2022-11-03T13:44:47.909Z,15.20
2022-11-03T13:47:14.897Z,15.20
2022-11-03T13:52:29.904Z,14.90
2022-11-03T14:00:31.051Z,14.50
2022-11-03T14:05:45.381Z,14.30
2022-11-03T14:08:12.440Z,14.10
2022-11-03T14:10:39.403Z,14.00
2022-11-03T14:13:06.600Z,14.00
2022-11-03T14:15:34.700Z,14.00
2022-11-03T14:18:01.698Z,13.80
2022-11-03T14:23:00.559Z,13.60
2022-11-03T14:25:27.602Z,13.40
2022-11-03T14:27:55.068Z,13.30
2022-11-03T14:30:22.270Z,13.20
2022-11-03T14:32:49.310Z,13.10
2022-11-03T14:35:17.933Z,13.10
2022-11-03T14:37:44.992Z,13.10
2022-11-03T14:40:32.264Z,13.10
2022-11-03T14:42:59.404Z,13.00
2022-11-03T14:45:26.643Z,13.00
2022-11-03T14:47:53.739Z,12.90
2022-11-03T14:50:24.694Z,12.90
2022-11-03T14:52:59.752Z,12.90
2022-11-03T14:55:27.371Z,12.80
2022-11-03T14:57:54.913Z,12.80
2022-11-03T15:00:22.209Z,12.70
2022-11-03T15:02:49.265Z,12.70
2022-11-03T15:05:35.270Z,12.80
2022-11-03T15:08:02.400Z,12.70
2022-11-03T15:10:29.428Z,12.70
2022-11-03T15:12:57.796Z,12.70
2022-11-03T15:15:25.322Z,12.70
2022-11-03T15:17:52.352Z,12.70
2022-11-03T15:20:19.376Z,12.70
2022-11-03T15:25:36.295Z,12.70
2022-11-03T15:28:03.505Z,12.80
2022-11-03T15:30:30.498Z,12.80
2022-11-03T15:32:57.747Z,12.80
2022-11-03T15:35:25.085Z,12.70
2022-11-03T15:37:52.980Z,12.70
2022-11-03T15:40:20.248Z,12.70
2022-11-03T15:42:47.412Z,12.60
2022-11-03T15:45:15.341Z,12.60
2022-11-03T15:47:42.874Z,12.70
2022-11-03T15:50:11.695Z,12.60
2022-11-03T15:52:39.042Z,12.60
2022-11-03T15:55:07.342Z,12.60
2022-11-03T15:57:35.073Z,12.60
2022-11-03T16:00:03.548Z,12.60
2022-11-03T16:02:46.137Z,12.70
2022-11-03T16:05:14.140Z,12.60
2022-11-03T16:07:41.208Z,12.60
2022-11-03T16:10:08.823Z,12.60
2022-11-03T16:12:36.264Z,12.60
2022-11-03T16:15:03.939Z,12.60
2022-11-03T16:17:30.965Z,12.60
2022-11-03T16:19:58.963Z,12.60
2022-11-03T16:22:26.119Z,12.60
2022-11-03T16:24:53.091Z,12.50
2022-11-03T16:27:20.136Z,12.50
2022-11-03T16:29:47.320Z,12.40
2022-11-03T16:32:14.538Z,12.30
2022-11-03T16:34:41.549Z,12.30
2022-11-03T16:37:08.507Z,12.30
2022-11-03T16:39:35.706Z,12.30
2022-11-03T16:42:03.328Z,12.30
2022-11-03T16:44:30.490Z,12.30
2022-11-03T16:46:57.686Z,12.20
2022-11-03T16:49:24.770Z,12.20
2022-11-03T16:51:52.196Z,12.20
2022-11-03T16:54:19.335Z,12.10
2022-11-03T16:56:50.574Z,12.10
2022-11-03T16:59:23.443Z,12.10
2022-11-03T17:01:50.553Z,12.10
2022-11-03T17:04:17.614Z,12.00
2022-11-03T17:06:44.861Z,12.00
2022-11-03T17:09:13.213Z,12.10
2022-11-03T17:11:41.071Z,12.00
2022-11-03T17:14:14.509Z,12.00
2022-11-03T17:16:48.698Z,11.90
2022-11-03T17:19:16.411Z,11.90
2022-11-03T17:21:43.564Z,12.00
2022-11-03T17:24:11.438Z,12.00
2022-11-03T17:27:15.032Z,12.00
2022-11-03T17:29:52.669Z,12.00
2022-11-03T17:32:31.701Z,12.00
2022-11-03T17:34:59.289Z,12.00
2022-11-03T17:37:27.124Z,11.90
2022-11-03T17:39:54.384Z,11.90
2022-11-03T17:42:26.602Z,11.90
2022-11-03T17:44:56.954Z,11.90
2022-11-03T17:47:24.787Z,11.80
2022-11-03T17:49:52.104Z,11.80
2022-11-03T17:52:29.144Z,11.90
2022-11-03T17:55:03.013Z,11.80
2022-11-03T17:57:30.410Z,11.80
2022-11-03T18:00:00.850Z,11.80
2022-11-03T18:02:31.921Z,11.80
2022-11-03T18:05:26.693Z,11.80
2022-11-03T18:07:55.408Z,11.80
2022-11-03T18:10:32.525Z,11.80
2022-11-03T18:13:18.624Z,11.80
2022-11-03T18:16:13.759Z,11.80
2022-11-03T18:18:43.777Z,11.80
2022-11-03T18:21:16.924Z,11.80
2022-11-03T18:23:44.477Z,11.80
2022-11-03T18:26:24.310Z,11.80
2022-11-03T18:28:52.498Z,11.80
2022-11-03T18:31:41.416Z,11.80
2022-11-03T18:34:27.093Z,11.80
2022-11-03T18:36:55.287Z,11.80
2022-11-03T18:39:26.524Z,11.80
2022-11-03T18:41:54.485Z,11.80
2022-11-03T18:44:30.203Z,11.80
2022-11-03T18:46:58.589Z,11.80
2022-11-03T18:49:27.447Z,11.80
2022-11-03T18:52:11.828Z,11.80
2022-11-03T18:54:50.388Z,11.80
2022-11-03T18:57:26.463Z,11.80
2022-11-03T18:59:53.529Z,11.80
2022-11-03T19:02:25.410Z,11.80
2022-11-03T19:04:52.587Z,11.80
2022-11-03T19:07:28.763Z,11.70
2022-11-03T19:09:56.061Z,11.70
2022-11-03T19:12:25.941Z,11.70
2022-11-03T19:14:53.071Z,11.70
2022-11-03T19:17:23.518Z,11.60
2022-11-03T19:19:54.465Z,11.60
2022-11-03T19:22:23.699Z,11.60
2022-11-03T19:24:50.708Z,11.60
2022-11-03T19:27:27.456Z,11.60
2022-11-03T19:29:57.177Z,11.60
2022-11-03T19:32:35.778Z,11.60
2022-11-03T19:35:28.578Z,11.60
2022-11-03T19:38:06.957Z,11.60
2022-11-03T19:40:34.279Z,11.60
2022-11-03T19:43:01.369Z,11.60
2022-11-03T19:45:29.143Z,11.60
2022-11-03T19:50:48.390Z,11.60
2022-11-03T19:53:28.943Z,11.60
2022-11-03T19:55:56.833Z,11.50
2022-11-03T19:58:27.495Z,11.60
2022-11-03T20:00:55.527Z,11.50
2022-11-03T20:03:24.964Z,11.50
2022-11-03T20:05:57.094Z,11.60
2022-11-03T20:08:28.017Z,11.60
2022-11-03T20:10:55.750Z,11.60
2022-11-03T20:13:30.305Z,11.60
2022-11-03T20:16:01.062Z,11.60
2022-11-03T20:18:29.020Z,11.60
2022-11-03T20:20:56.467Z,11.60
2022-11-03T20:23:31.118Z,11.60
2022-11-03T20:25:59.083Z,11.60
2022-11-03T20:28:29.382Z,11.60
2022-11-03T20:30:57.687Z,11.60
2022-11-03T20:33:25.895Z,11.60
2022-11-03T20:35:54.567Z,11.60
2022-11-03T20:38:25.018Z,11.60
2022-11-03T20:40:58.416Z,11.60
2022-11-03T20:43:41.988Z,11.60
2022-11-03T20:46:26.178Z,11.60
2022-11-03T20:48:55.475Z,11.60
2022-11-03T20:51:30.840Z,11.60
2022-11-03T20:53:59.378Z,11.60
2022-11-03T20:56:28.443Z,11.70
2022-11-03T20:58:56.274Z,11.60
2022-11-03T21:01:27.955Z,11.60
2022-11-03T21:04:00.040Z,11.60
2022-11-03T21:06:30.774Z,11.60
2022-11-03T21:08:58.861Z,11.50
2022-11-03T21:11:30.983Z,11.50
2022-11-03T21:14:25.157Z,11.40
2022-11-03T21:17:10.947Z,11.30
2022-11-03T21:19:56.662Z,11.30
2022-11-03T21:25:23.422Z,11.20
2022-11-03T21:27:51.383Z,11.20
2022-11-03T21:30:18.668Z,11.20
2022-11-03T21:32:45.784Z,11.20
2022-11-03T21:35:20.122Z,11.20
2022-11-03T21:37:47.682Z,11.20
2022-11-03T21:40:15.095Z,11.20
2022-11-03T21:43:00.876Z,11.10
2022-11-03T21:45:27.946Z,11.10
2022-11-03T21:48:14.569Z,11.10
2022-11-03T21:50:43.278Z,11.00
2022-11-03T21:53:11.449Z,11.00
2022-11-03T21:55:39.322Z,11.00
2022-11-03T21:58:06.459Z,10.90
2022-11-03T22:00:33.879Z,10.90
2022-11-03T22:03:01.174Z,10.80
2022-11-03T22:05:28.255Z,10.80
2022-11-03T22:07:55.257Z,10.80
2022-11-03T22:10:22.594Z,10.70
2022-11-03T22:12:49.694Z,10.70
2022-11-03T22:15:35.406Z,10.70
2022-11-03T22:18:07.413Z,10.70
2022-11-03T22:20:55.310Z,10.70
2022-11-03T22:23:41.026Z,10.60
2022-11-03T22:26:34.296Z,10.60
2022-11-03T22:29:22.888Z,10.60
2022-11-03T22:31:49.879Z,10.50
2022-11-03T22:34:35.341Z,10.60
2022-11-03T22:37:03.401Z,10.60
2022-11-03T22:39:50.259Z,10.50
2022-11-03T22:42:36.091Z,10.50
2022-11-03T22:45:21.873Z,10.50
2022-11-03T22:47:48.800Z,10.50
2022-11-03T22:50:15.749Z,10.40
2022-11-03T22:52:42.725Z,10.40
2022-11-03T22:55:09.735Z,10.30
2022-11-03T22:57:36.710Z,10.30
2022-11-03T23:00:05.746Z,10.30
2022-11-03T23:02:33.115Z,10.30
2022-11-03T23:05:00.284Z,10.30
2022-11-03T23:07:32.222Z,10.30
2022-11-03T23:10:04.626Z,10.20
2022-11-03T23:12:32.329Z,10.30
2022-11-03T23:15:18.082Z,10.30
2022-11-03T23:18:03.626Z,10.30
2022-11-03T23:20:48.793Z,10.30
2022-11-03T23:23:35.686Z,10.30
2022-11-03T23:26:02.651Z,10.30
2022-11-03T23:28:29.595Z,10.30
2022-11-03T23:30:56.551Z,10.30
2022-11-03T23:33:23.445Z,10.30
2022-11-03T23:35:50.397Z,10.30
2022-11-03T23:38:17.356Z,10.30
2022-11-03T23:40:48.200Z,10.30
2022-11-03T23:43:15.431Z,10.30
2022-11-03T23:46:01.189Z,10.30
2022-11-03T23:48:46.454Z,10.30
2022-11-03T23:51:25.611Z,10.30
2022-11-03T23:53:54.639Z,10.30
2022-11-03T23:56:45.092Z,10.30
2022-11-03T23:59:14.761Z,10.30
